Time;durP1;ratioP1;P1;durP2;ratioP2;P2;SDS_P1;SDS_P2;PMS_P1;PMS_P2;Temp;Humidity;BMP_temperature;BMP_pressure;BME280_temperature;BME280_humidity;BME280_pressure;Samples;Min_cycle;Max_cycle;Signal;HPM_P1;HPM_P2
2023/05/04 00:01:50;;;;;;;7.00;6.30;;;12.20;36.10;;;;;;5095310;28;20521;-51
2023/05/04 00:04:16;;;;;;;10.32;7.03;;;12.30;36.20;;;;;;5095355;28;20401;-52
2023/05/04 00:06:42;;;;;;;9.65;6.25;;;12.20;36.20;;;;;;5095459;28;20309;-51
2023/05/04 00:09:10;;;;;;;8.80;6.07;;;12.20;36.10;;;;;;5095395;28;20176;-51
2023/05/04 00:11:36;;;;;;;9.48;6.88;;;12.20;36.20;;;;;;5095073;28;20210;-51
2023/05/04 00:14:02;;;;;;;9.50;6.18;;;12.20;36.30;;;;;;5095075;28;20596;-52
2023/05/04 00:16:28;;;;;;;6.90;6.17;;;12.10;36.30;;;;;;5095435;28;20214;-52
2023/05/04 00:18:53;;;;;;;9.63;7.53;;;12.10;36.20;;;;;;5095279;28;20632;-52
2023/05/04 00:21:19;;;;;;;12.63;7.10;;;12.00;36.50;;;;;;5095280;28;20192;-51
2023/05/04 00:23:45;;;;;;;9.43;7.10;;;11.90;36.70;;;;;;5094823;28;20376;-51
2023/05/04 00:26:10;;;;;;;8.57;7.30;;;11.90;36.60;;;;;;5094945;28;20172;-52
2023/05/04 00:28:36;;;;;;;8.70;5.50;;;11.90;36.70;;;;;;5095255;28;20211;-51
2023/05/04 00:31:02;;;;;;;10.00;6.27;;;11.90;36.60;;;;;;5094718;28;20234;-51
2023/05/04 00:33:28;;;;;;;9.18;6.65;;;11.90;36.50;;;;;;5094619;28;20539;-52
2023/05/04 00:35:53;;;;;;;13.20;6.80;;;11.90;36.60;;;;;;5094881;28;20182;-51
2023/05/04 00:38:19;;;;;;;10.43;6.77;;;11.90;36.70;;;;;;5094756;28;20168;-51
2023/05/04 00:40:45;;;;;;;6.63;5.90;;;11.80;36.80;;;;;;5094613;28;20231;-51
2023/05/04 00:43:10;;;;;;;9.57;6.40;;;11.80;37.00;;;;;;5094828;28;20174;-51
2023/05/04 00:45:37;;;;;;;7.53;6.30;;;11.80;36.90;;;;;;5094878;28;20251;-51
2023/05/04 00:48:04;;;;;;;9.23;6.75;;;11.80;37.10;;;;;;5094655;28;20218;-52
2023/05/04 00:50:30;;;;;;;8.20;6.78;;;11.70;37.30;;;;;;5094437;28;20196;-52
2023/05/04 00:52:58;;;;;;;6.73;5.97;;;11.70;37.10;;;;;;5094280;28;20176;-52
2023/05/04 00:55:25;;;;;;;11.07;7.07;;;11.70;37.00;;;;;;5094607;28;20501;-52
2023/05/04 00:57:51;;;;;;;8.02;6.50;;;11.70;37.00;;;;;;5094471;28;20176;-51
2023/05/04 01:00:17;;;;;;;7.80;6.75;;;11.80;37.00;;;;;;5094200;28;20249;-52
2023/05/04 01:02:43;;;;;;;12.53;6.50;;;11.70;37.20;;;;;;5094275;28;20180;-52
2023/05/04 01:05:11;;;;;;;9.33;7.10;;;11.70;37.00;;;;;;5094309;28;20430;-52
2023/05/04 01:07:49;;;;;;;10.70;6.68;;;11.70;37.10;;;;;;5094269;28;20259;-51
2023/05/04 01:10:24;;;;;;;9.02;7.03;;;11.70;37.20;;;;;;5094355;28;20199;-51
2023/05/04 01:12:57;;;;;;;7.78;6.80;;;11.70;37.20;;;;;;5094186;28;20163;-50
2023/05/04 01:15:24;;;;;;;10.13;6.80;;;11.70;37.20;;;;;;5094390;28;20168;-51
2023/05/04 01:17:50;;;;;;;10.27;7.28;;;11.70;37.20;;;;;;5094041;28;20170;-51
2023/05/04 01:20:16;;;;;;;7.27;6.57;;;11.60;37.20;;;;;;5094025;28;20212;-51
2023/05/04 01:22:41;;;;;;;8.53;6.03;;;11.60;37.10;;;;;;5093738;28;20210;-50
2023/05/04 01:25:08;;;;;;;7.57;6.87;;;11.60;37.20;;;;;;5093904;28;20182;-50
2023/05/04 01:27:35;;;;;;;8.70;6.00;;;11.50;37.30;;;;;;5093947;28;20398;-50
2023/05/04 01:30:15;;;;;;;8.57;6.50;;;11.50;37.40;;;;;;5093695;28;20224;-50
2023/05/04 01:32:42;;;;;;;9.55;6.80;;;11.50;37.60;;;;;;5093822;28;20573;-50
2023/05/04 01:35:10;;;;;;;7.80;6.63;;;11.40;37.50;;;;;;5093871;28;20263;-50
2023/05/04 01:37:36;;;;;;;12.57;8.35;;;11.40;38.00;;;;;;5093825;28;20190;-51
2023/05/04 01:40:03;;;;;;;7.70;7.00;;;11.40;37.60;;;;;;5093756;28;20211;-50
2023/05/04 01:42:28;;;;;;;7.10;6.35;;;11.40;37.30;;;;;;5093586;28;20223;-51
2023/05/04 01:44:55;;;;;;;11.27;7.43;;;11.30;37.40;;;;;;5093520;28;20187;-51
2023/05/04 01:47:20;;;;;;;8.88;6.55;;;11.30;37.60;;;;;;5093398;28;20171;-50
2023/05/04 01:49:46;;;;;;;9.80;7.77;;;11.30;37.60;;;;;;5093133;28;20195;-50
2023/05/04 01:52:12;;;;;;;8.27;5.93;;;11.30;37.60;;;;;;5093149;28;20168;-50
2023/05/04 01:54:37;;;;;;;8.17;7.37;;;11.30;37.70;;;;;;5093441;28;20250;-51
2023/05/04 01:57:03;;;;;;;7.57;6.70;;;11.30;37.70;;;;;;5093316;28;20206;-50
2023/05/04 01:59:29;;;;;;;8.63;6.63;;;11.20;37.70;;;;;;5093018;28;20663;-51
2023/05/04 02:01:55;;;;;;;12.73;7.60;;;11.30;37.90;;;;;;5093121;28;20167;-50
2023/05/04 02:04:20;;;;;;;7.77;6.70;;;11.20;37.70;;;;;;5093354;28;20563;-51
2023/05/04 02:06:46;;;;;;;7.10;6.40;;;11.20;37.80;;;;;;5093411;28;20175;-50
2023/05/04 02:09:12;;;;;;;9.43;5.85;;;11.30;37.70;;;;;;5093197;28;20176;-50
2023/05/04 02:11:38;;;;;;;10.57;6.20;;;11.30;37.60;;;;;;5092911;28;20655;-50
2023/05/04 02:14:04;;;;;;;6.60;6.00;;;11.30;37.40;;;;;;5092857;28;20435;-51
2023/05/04 02:16:30;;;;;;;11.63;8.67;;;11.30;37.60;;;;;;5092903;28;20244;-50
2023/05/04 02:18:56;;;;;;;9.95;6.40;;;11.20;37.50;;;;;;5093024;28;20203;-50
2023/05/04 02:21:22;;;;;;;8.53;5.90;;;11.20;37.50;;;;;;5092714;28;20223;-50
2023/05/04 02:23:47;;;;;;;8.55;6.60;;;11.10;37.60;;;;;;5092728;28;20172;-50
2023/05/04 02:26:13;;;;;;;9.00;6.70;;;11.10;37.70;;;;;;5092866;28;20218;-51
2023/05/04 02:28:39;;;;;;;8.07;7.10;;;11.00;37.80;;;;;;5092792;28;20628;-50
2023/05/04 02:31:05;;;;;;;13.17;7.80;;;10.90;37.80;;;;;;5092342;28;20215;-50
2023/05/04 02:33:30;;;;;;;14.23;7.00;;;10.90;37.90;;;;;;5092346;28;20175;-50
2023/05/04 02:35:56;;;;;;;8.10;5.93;;;10.70;37.90;;;;;;5092571;28;20180;-50
2023/05/04 02:38:22;;;;;;;7.10;6.30;;;10.60;38.00;;;;;;5092580;28;20172;-50
2023/05/04 02:40:48;;;;;;;8.73;6.73;;;10.60;38.10;;;;;;5092448;28;20290;-50
2023/05/04 02:43:13;;;;;;;9.40;7.07;;;10.50;38.10;;;;;;5092326;28;20172;-50
2023/05/04 02:45:39;;;;;;;8.43;7.30;;;10.40;38.30;;;;;;5092357;28;20940;-50
2023/05/04 02:48:05;;;;;;;8.70;6.37;;;10.40;37.90;;;;;;5092334;28;20380;-50
2023/05/04 02:50:31;;;;;;;7.40;6.13;;;10.40;37.90;;;;;;5092544;28;20237;-50
2023/05/04 02:52:56;;;;;;;8.53;7.70;;;10.40;37.90;;;;;;5092113;28;20229;-50
2023/05/04 02:55:22;;;;;;;8.63;7.73;;;10.40;37.90;;;;;;5092454;28;20175;-50
2023/05/04 02:57:48;;;;;;;8.37;6.63;;;10.30;37.80;;;;;;5092400;28;20200;-50
2023/05/04 03:00:14;;;;;;;8.17;6.40;;;10.30;37.80;;;;;;5091195;28;20204;-50
2023/05/04 03:02:39;;;;;;;8.32;7.50;;;10.30;37.80;;;;;;5092235;28;20285;-51
2023/05/04 03:05:05;;;;;;;8.23;7.43;;;10.30;38.00;;;;;;5092392;28;20178;-50
2023/05/04 03:07:31;;;;;;;8.97;6.70;;;10.20;38.10;;;;;;5092178;28;20394;-50
2023/05/04 03:09:57;;;;;;;7.23;6.53;;;10.20;38.10;;;;;;5092213;28;20433;-51
2023/05/04 03:12:23;;;;;;;8.43;6.47;;;10.10;38.20;;;;;;5092069;28;20172;-50
2023/05/04 03:14:49;;;;;;;11.65;7.20;;;10.00;38.30;;;;;;5092122;28;20180;-50
2023/05/04 03:17:15;;;;;;;9.07;7.80;;;10.00;39.00;;;;;;5092032;28;20734;-51
2023/05/04 03:19:41;;;;;;;10.63;6.77;;;9.90;38.40;;;;;;5091874;28;20211;-51
2023/05/04 03:22:06;;;;;;;13.37;7.57;;;9.90;38.30;;;;;;5091875;28;20438;-50
2023/05/04 03:24:32;;;;;;;12.60;9.17;;;10.00;38.20;;;;;;5091981;28;20254;-49
2023/05/04 03:26:58;;;;;;;10.27;8.43;;;9.90;38.10;;;;;;5091988;28;20168;-51
2023/05/04 03:29:23;;;;;;;10.60;8.17;;;9.90;38.20;;;;;;5091817;28;20324;-50
2023/05/04 03:31:49;;;;;;;12.70;7.60;;;10.00;38.00;;;;;;5091605;28;20180;-49
2023/05/04 03:34:20;;;;;;;9.57;8.57;;;9.90;38.30;;;;;;5091927;28;20574;-51
2023/05/04 03:36:46;;;;;;;9.43;8.52;;;9.80;38.30;;;;;;5092068;28;20184;-52
2023/05/04 03:39:12;;;;;;;11.30;8.70;;;9.70;38.40;;;;;;5091854;28;20258;-50
2023/05/04 03:41:38;;;;;;;12.70;8.10;;;9.70;38.50;;;;;;5091732;28;20663;-51
2023/05/04 03:44:04;;;;;;;16.53;8.93;;;9.70;38.60;;;;;;5091554;28;20402;-50
2023/05/04 03:46:29;;;;;;;15.00;9.53;;;9.60;38.40;;;;;;5091741;28;20527;-50
2023/05/04 03:48:56;;;;;;;12.90;8.90;;;9.60;38.60;;;;;;5091687;28;20168;-51
2023/05/04 03:51:22;;;;;;;9.00;8.07;;;9.60;38.40;;;;;;5091627;28;20194;-49
2023/05/04 03:53:48;;;;;;;11.23;8.10;;;9.60;38.70;;;;;;5091511;28;20172;-48
2023/05/04 03:56:13;;;;;;;14.50;9.10;;;9.60;38.70;;;;;;5091702;28;20506;-49
2023/05/04 03:58:39;;;;;;;12.00;7.77;;;9.50;38.70;;;;;;5091551;28;20689;-49
2023/05/04 04:01:05;;;;;;;12.65;8.25;;;9.50;38.70;;;;;;5091544;28;20260;-51
2023/05/04 04:03:31;;;;;;;14.55;8.25;;;9.50;38.60;;;;;;5091380;28;20161;-50
2023/05/04 04:05:57;;;;;;;20.55;9.48;;;9.60;38.70;;;;;;5091651;28;20164;-49
2023/05/04 04:08:23;;;;;;;12.13;8.77;;;9.60;38.60;;;;;;5091578;28;20165;-49
2023/05/04 04:10:49;;;;;;;17.17;9.07;;;9.60;38.80;;;;;;5091484;28;20430;-49
2023/05/04 04:13:15;;;;;;;15.17;9.77;;;9.60;39.00;;;;;;5094958;28;20188;-50
2023/05/04 04:15:43;;;;;;;17.87;9.80;;;9.60;39.10;;;;;;5095560;28;20197;-51
2023/05/04 04:18:09;;;;;;;12.18;8.95;;;9.60;39.00;;;;;;5095185;28;20585;-50
2023/05/04 04:20:35;;;;;;;15.80;8.87;;;9.70;39.40;;;;;;5095086;28;20322;-50
2023/05/04 04:23:00;;;;;;;15.87;9.13;;;9.70;39.20;;;;;;5094953;28;20409;-50
2023/05/04 04:25:26;;;;;;;9.47;8.00;;;9.80;39.20;;;;;;5095162;28;20179;-49
2023/05/04 04:27:52;;;;;;;17.13;8.43;;;9.90;39.10;;;;;;5094929;28;20163;-53
2023/05/04 04:30:18;;;;;;;13.33;7.77;;;10.00;39.10;;;;;;5094937;28;20222;-51
2023/05/04 04:32:44;;;;;;;8.83;7.30;;;10.00;39.20;;;;;;5094948;28;20493;-50
2023/05/04 04:35:10;;;;;;;12.82;9.07;;;10.20;39.40;;;;;;5094889;28;20418;-52
2023/05/04 04:37:36;;;;;;;10.40;7.20;;;10.20;39.40;;;;;;5094778;28;20542;-52
2023/05/04 04:40:02;;;;;;;10.60;8.70;;;10.30;39.40;;;;;;5094663;28;20218;-50
2023/05/04 04:42:28;;;;;;;12.38;7.90;;;10.40;39.30;;;;;;5094351;28;20229;-49
2023/05/04 04:44:54;;;;;;;9.23;7.70;;;10.50;39.40;;;;;;5094673;28;20656;-51
2023/05/04 04:47:20;;;;;;;16.85;9.60;;;10.60;39.30;;;;;;5094466;28;20172;-51
2023/05/04 04:49:46;;;;;;;11.33;7.10;;;10.70;39.30;;;;;;5094776;28;20293;-49
2023/05/04 04:52:12;;;;;;;12.33;7.30;;;10.80;39.20;;;;;;5094264;28;20179;-49
2023/05/04 04:54:38;;;;;;;9.57;7.87;;;10.90;39.10;;;;;;5094488;28;20413;-53
2023/05/04 04:57:04;;;;;;;10.87;7.60;;;11.00;39.00;;;;;;5094404;28;20174;-50
2023/05/04 04:59:30;;;;;;;11.65;7.75;;;11.10;38.90;;;;;;5094344;28;20243;-51
2023/05/04 05:01:56;;;;;;;9.13;8.17;;;11.20;38.70;;;;;;5094396;28;20180;-52
2023/05/04 05:04:22;;;;;;;9.40;8.00;;;11.30;38.70;;;;;;5094424;28;20571;-50
2023/05/04 05:06:48;;;;;;;14.63;8.82;;;11.40;39.40;;;;;;5094293;28;20435;-52
2023/05/04 05:09:14;;;;;;;10.90;8.38;;;11.50;38.70;;;;;;5094417;28;20190;-51
2023/05/04 05:11:40;;;;;;;10.17;9.10;;;11.60;38.60;;;;;;5093958;28;20263;-50
2023/05/04 05:14:05;;;;;;;10.50;8.27;;;11.70;38.70;;;;;;5094030;28;20266;-51
2023/05/04 05:16:31;;;;;;;11.87;9.47;;;11.80;38.50;;;;;;5094418;28;20175;-51
2023/05/04 05:18:57;;;;;;;16.53;8.07;;;11.90;38.40;;;;;;5092745;28;20582;-50
2023/05/04 05:21:22;;;;;;;10.93;9.60;;;12.00;38.20;;;;;;5093902;28;20192;-52
2023/05/04 05:23:48;;;;;;;11.40;9.20;;;12.10;38.30;;;;;;5092819;28;20679;-52
2023/05/04 05:26:14;;;;;;;9.33;7.70;;;12.20;38.00;;;;;;5093807;28;20169;-50
2023/05/04 05:28:40;;;;;;;10.80;9.70;;;12.30;38.10;;;;;;5093835;28;20209;-51
2023/05/04 05:31:05;;;;;;;10.23;8.37;;;12.30;37.90;;;;;;5093391;28;20659;-50
2023/05/04 05:33:31;;;;;;;11.33;8.20;;;12.40;37.90;;;;;;5093445;28;20463;-49
2023/05/04 05:35:57;;;;;;;12.65;8.35;;;12.50;37.80;;;;;;5093701;28;20176;-51
2023/05/04 05:38:23;;;;;;;10.50;8.77;;;12.60;37.80;;;;;;5093659;28;20283;-50
2023/05/04 05:40:48;;;;;;;9.43;8.53;;;12.70;37.70;;;;;;5093641;28;20736;-49
2023/05/04 05:43:14;;;;;;;13.70;7.67;;;12.80;37.60;;;;;;5093305;28;20200;-50
2023/05/04 05:45:40;;;;;;;9.15;8.25;;;12.80;37.10;;;;;;5093601;28;20233;-50
2023/05/04 05:48:06;;;;;;;18.33;9.00;;;12.90;37.00;;;;;;5093521;28;20301;-49
2023/05/04 05:50:33;;;;;;;14.03;9.27;;;13.00;37.20;;;;;;5093510;28;20702;-50
2023/05/04 05:52:59;;;;;;;8.55;7.70;;;13.10;37.50;;;;;;5093071;28;20508;-49
2023/05/04 05:55:24;;;;;;;9.97;8.63;;;13.20;36.80;;;;;;5093190;28;20261;-49
2023/05/04 05:57:50;;;;;;;16.70;8.07;;;13.30;36.30;;;;;;5093232;28;20536;-50
2023/05/04 06:00:16;;;;;;;13.20;9.67;;;13.30;36.60;;;;;;5092999;28;20212;-51
2023/05/04 06:02:42;;;;;;;13.10;8.40;;;13.40;36.70;;;;;;5091588;28;20172;-49
2023/05/04 06:05:09;;;;;;;12.90;9.30;;;13.60;36.70;;;;;;5093418;28;20266;-49
2023/05/04 06:07:35;;;;;;;9.30;8.40;;;13.70;36.40;;;;;;5093370;28;20194;-51
2023/05/04 06:10:00;;;;;;;12.03;7.83;;;13.90;36.30;;;;;;5092993;28;20626;-49
2023/05/04 06:12:26;;;;;;;10.50;9.40;;;14.00;35.90;;;;;;5092772;28;20168;-49
2023/05/04 06:14:52;;;;;;;15.07;9.17;;;14.20;35.70;;;;;;5093126;28;20740;-51
2023/05/04 06:17:18;;;;;;;10.60;7.93;;;14.30;35.60;;;;;;5092767;28;20266;-49
2023/05/04 06:19:44;;;;;;;12.25;9.35;;;14.40;35.50;;;;;;5092518;28;20454;-51
2023/05/04 06:22:10;;;;;;;12.40;6.88;;;14.50;35.00;;;;;;5092578;28;20171;-49
2023/05/04 06:24:36;;;;;;;10.73;7.90;;;14.60;34.90;;;;;;5092807;28;20176;-49
2023/05/04 06:27:02;;;;;;;12.80;8.40;;;14.60;34.80;;;;;;5092736;28;20235;-51
2023/05/04 06:29:28;;;;;;;10.10;6.80;;;14.70;34.70;;;;;;5092601;28;20407;-51
2023/05/04 06:31:53;;;;;;;10.33;8.10;;;14.80;34.60;;;;;;5092375;28;20434;-51
2023/05/04 06:34:20;;;;;;;8.07;7.27;;;14.90;34.50;;;;;;5092679;28;20199;-51
2023/05/04 06:36:47;;;;;;;14.65;9.02;;;15.00;34.30;;;;;;5092495;28;20186;-51
2023/05/04 06:39:14;;;;;;;8.55;7.47;;;15.10;34.40;;;;;;5092231;28;20203;-48
2023/05/04 06:41:40;;;;;;;10.25;7.43;;;15.20;33.60;;;;;;5092268;28;20195;-51
2023/05/04 06:44:06;;;;;;;9.02;7.38;;;15.40;32.90;;;;;;5092199;28;20176;-51
2023/05/04 06:46:38;;;;;;;10.17;7.30;;;15.50;34.10;;;;;;5092401;28;20168;-51
2023/05/04 06:49:04;;;;;;;11.43;8.23;;;15.60;32.90;;;;;;5092295;28;20402;-51
2023/05/04 06:51:30;;;;;;;9.03;6.77;;;15.70;33.10;;;;;;5092169;28;20192;-51
2023/05/04 06:53:56;;;;;;;8.82;7.30;;;15.90;32.40;;;;;;5092101;28;20188;-50
2023/05/04 06:56:22;;;;;;;10.60;6.77;;;16.00;32.50;;;;;;5092517;28;20201;-51
2023/05/04 06:58:49;;;;;;;8.88;7.43;;;16.20;32.90;;;;;;5092320;28;20433;-51
2023/05/04 07:01:15;;;;;;;9.75;7.63;;;16.40;32.60;;;;;;5092230;28;20222;-50
2023/05/04 07:03:41;;;;;;;9.50;7.03;;;16.50;31.80;;;;;;5092052;28;20164;-49
2023/05/04 07:06:08;;;;;;;8.25;7.03;;;16.70;32.40;;;;;;5092319;28;20402;-49
2023/05/04 07:08:33;;;;;;;9.20;6.47;;;16.90;32.10;;;;;;5092164;28;20750;-51
2023/05/04 07:11:00;;;;;;;9.63;7.70;;;17.00;30.80;;;;;;5092068;28;20199;-49
2023/05/04 07:13:26;;;;;;;11.63;6.80;;;17.20;31.40;;;;;;5091895;28;20171;-49
2023/05/04 07:15:52;;;;;;;7.82;7.10;;;17.30;30.90;;;;;;5092087;28;20164;-52
2023/05/04 07:18:17;;;;;;;16.70;7.10;;;17.50;31.60;;;;;;5092078;28;20513;-50
2023/05/04 07:20:43;;;;;;;6.53;5.90;;;17.70;31.00;;;;;;5091873;28;20577;-49
2023/05/04 07:23:09;;;;;;;12.77;6.47;;;17.80;31.20;;;;;;5091745;28;20176;-52
2023/05/04 07:25:35;;;;;;;8.53;6.17;;;18.10;31.30;;;;;;5092234;28;20402;-52
2023/05/04 07:28:00;;;;;;;10.53;6.33;;;18.30;30.30;;;;;;5091875;28;20561;-50
2023/05/04 07:30:26;;;;;;;5.73;5.23;;;18.50;30.80;;;;;;5091849;28;20239;-52
2023/05/04 07:32:52;;;;;;;8.93;5.93;;;18.60;29.90;;;;;;5091746;28;20615;-52
2023/05/04 07:35:18;;;;;;;7.43;6.20;;;18.70;28.40;;;;;;5091789;28;20254;-50
2023/05/04 07:37:45;;;;;;;6.68;5.57;;;18.80;28.70;;;;;;5091842;28;20417;-52
2023/05/04 07:40:13;;;;;;;6.30;5.70;;;18.90;30.00;;;;;;5090371;28;20618;-50
2023/05/04 07:42:39;;;;;;;7.32;5.82;;;19.00;28.80;;;;;;5091563;28;20211;-50
2023/05/04 07:45:07;;;;;;;7.38;5.32;;;19.20;29.40;;;;;;5091867;28;20180;-52
2023/05/04 07:47:33;;;;;;;8.98;5.85;;;19.40;28.00;;;;;;5094620;28;20544;-51
2023/05/04 07:49:59;;;;;;;7.90;4.43;;;19.50;27.90;;;;;;5095503;28;20740;-50
2023/05/04 07:52:25;;;;;;;8.50;5.23;;;19.60;27.10;;;;;;5095476;28;20202;-52
2023/05/04 07:54:52;;;;;;;9.50;5.00;;;19.70;27.40;;;;;;5095615;28;20210;-50
2023/05/04 07:57:18;;;;;;;12.85;4.80;;;19.80;26.90;;;;;;5095482;28;20263;-52
2023/05/04 07:59:43;;;;;;;8.60;4.93;;;19.90;26.90;;;;;;5095465;28;20294;-50
2023/05/04 08:02:09;;;;;;;5.80;5.13;;;20.10;26.80;;;;;;5095608;28;20247;-52
2023/05/04 08:04:35;;;;;;;9.30;4.20;;;20.30;28.20;;;;;;5095296;28;20179;-50
2023/05/04 08:07:01;;;;;;;4.10;3.60;;;20.40;24.00;;;;;;5095631;28;20164;-49
2023/05/04 08:09:26;;;;;;;7.80;4.27;;;20.40;24.80;;;;;;5095519;28;20406;-52
2023/05/04 08:11:52;;;;;;;7.70;4.20;;;20.50;24.00;;;;;;5095283;28;20167;-52
2023/05/04 08:14:18;;;;;;;6.03;3.97;;;20.50;24.20;;;;;;5095337;28;20240;-49
2023/05/04 08:16:44;;;;;;;5.37;4.13;;;20.60;24.70;;;;;;5095176;28;20276;-52
2023/05/04 08:19:11;;;;;;;6.97;3.63;;;20.70;24.00;;;;;;5095040;28;20170;-52
2023/05/04 08:21:39;;;;;;;6.55;3.80;;;20.80;24.40;;;;;;5094923;28;20199;-49
2023/05/04 08:24:05;;;;;;;6.63;4.28;;;20.80;23.50;;;;;;5094850;28;20698;-52
2023/05/04 08:26:30;;;;;;;5.47;3.83;;;20.90;23.60;;;;;;5095016;28;20172;-52
2023/05/04 08:29:06;;;;;;;6.67;4.83;;;20.90;23.80;;;;;;5094971;28;20445;-49
2023/05/04 08:31:32;;;;;;;4.00;3.58;;;21.00;24.20;;;;;;5094579;28;20215;-51
2023/05/04 08:33:58;;;;;;;5.22;3.80;;;21.10;22.90;;;;;;5094693;28;20237;-51
2023/05/04 08:36:23;;;;;;;5.30;3.73;;;21.20;21.80;;;;;;5094958;28;20183;-50
2023/05/04 08:38:49;;;;;;;8.77;4.93;;;21.10;22.50;;;;;;5094977;28;20180;-52
2023/05/04 08:41:15;;;;;;;11.90;4.63;;;21.20;23.00;;;;;;5094501;28;20203;-51
2023/05/04 08:43:42;;;;;;;7.60;4.57;;;21.30;25.00;;;;;;5094371;28;20406;-52
2023/05/04 08:46:09;;;;;;;5.55;4.00;;;21.50;25.40;;;;;;5094467;28;20433;-52
2023/05/04 08:48:35;;;;;;;4.65;3.92;;;21.70;23.10;;;;;;5094548;28;20600;-52
2023/05/04 08:51:03;;;;;;;7.32;4.30;;;21.70;22.60;;;;;;5094436;28;20286;-52
2023/05/04 08:53:30;;;;;;;6.10;3.60;;;21.80;22.00;;;;;;5094550;28;20183;-52
2023/05/04 08:56:02;;;;;;;6.20;3.90;;;21.80;21.60;;;;;;5094506;28;20563;-52
2023/05/04 08:58:28;;;;;;;11.43;4.47;;;21.90;22.20;;;;;;5093181;28;20927;-50
2023/05/04 09:00:55;;;;;;;8.00;3.63;;;22.00;22.60;;;;;;5094209;28;20211;-52
2023/05/04 09:03:22;;;;;;;4.90;4.40;;;22.00;21.50;;;;;;5094254;28;20406;-52
2023/05/04 09:05:49;;;;;;;5.13;4.20;;;22.10;22.60;;;;;;5094255;28;20410;-52
2023/05/04 09:08:16;;;;;;;6.47;3.95;;;22.30;22.30;;;;;;5094184;28;20410;-50
2023/05/04 09:10:42;;;;;;;10.10;4.40;;;22.40;21.30;;;;;;5094086;28;20282;-52
2023/05/04 09:13:07;;;;;;;5.50;4.47;;;22.40;22.60;;;;;;5094120;28;20302;-52
2023/05/04 09:15:33;;;;;;;4.40;3.70;;;22.50;21.80;;;;;;5094452;28;20654;-52
2023/05/04 09:18:08;;;;;;;10.10;4.30;;;22.60;21.30;;;;;;5094319;28;20570;-52
2023/05/04 09:20:46;;;;;;;6.30;4.53;;;22.70;19.70;;;;;;5093864;28;20529;-50
2023/05/04 09:23:13;;;;;;;10.60;4.20;;;22.50;21.30;;;;;;5093712;28;20497;-52
2023/05/04 09:25:52;;;;;;;8.00;5.90;;;22.60;21.70;;;;;;5093713;28;20402;-52
2023/05/04 09:28:20;;;;;;;6.50;3.67;;;22.70;20.40;;;;;;5094116;28;20421;-50
2023/05/04 09:30:50;;;;;;;6.10;3.97;;;22.80;22.10;;;;;;5093749;28;20495;-53
2023/05/04 09:33:16;;;;;;;7.43;4.80;;;23.00;21.10;;;;;;5093655;28;20668;-50
2023/05/04 09:35:43;;;;;;;5.10;3.70;;;22.90;19.50;;;;;;5093619;28;20766;-50
2023/05/04 09:38:09;;;;;;;6.30;4.00;;;23.00;21.60;;;;;;5093577;28;20544;-52
2023/05/04 09:40:39;;;;;;;9.30;5.97;;;23.00;20.50;;;;;;5093344;28;20548;-52
2023/05/04 09:43:09;;;;;;;7.63;4.07;;;23.10;19.70;;;;;;5093594;28;20398;-50
2023/05/04 09:45:40;;;;;;;5.10;3.47;;;23.20;20.30;;;;;;5093424;28;20766;-50
2023/05/04 09:48:27;;;;;;;6.23;4.40;;;23.20;19.90;;;;;;5093406;28;20402;-52
2023/05/04 09:50:57;;;;;;;3.80;3.40;;;23.30;21.60;;;;;;5093532;28;20433;-52
2023/05/04 09:53:28;;;;;;;6.43;3.70;;;23.30;21.90;;;;;;5093154;28;20421;-50
2023/05/04 09:56:03;;;;;;;5.30;3.23;;;23.60;22.40;;;;;;5093537;28;20403;-50
2023/05/04 09:58:30;;;;;;;4.63;3.37;;;23.80;21.00;;;;;;5093554;28;20389;-52
2023/05/04 10:00:59;;;;;;;5.10;3.10;;;23.90;19.30;;;;;;5093328;28;20467;-50
2023/05/04 10:03:26;;;;;;;8.37;3.50;;;23.90;21.40;;;;;;5093104;28;20433;-50
2023/05/04 10:05:53;;;;;;;4.40;3.57;;;24.10;21.40;;;;;;5093197;28;20959;-53
2023/05/04 10:08:19;;;;;;;4.90;4.23;;;24.20;20.30;;;;;;5092994;28;20467;-50
2023/05/04 10:10:45;;;;;;;9.90;3.63;;;24.10;19.50;;;;;;5092820;28;20429;-50
2023/05/04 10:13:11;;;;;;;3.53;3.23;;;24.20;22.00;;;;;;5092717;28;21100;-53
2023/05/04 10:16:13;;;;;;;10.80;3.67;;;24.40;20.60;;;;;;5092882;28;21193;-52
2023/05/04 10:18:59;;;;;;;5.67;3.67;;;24.50;20.50;;;;;;5092879;28;20905;-52
2023/05/04 10:21:32;;;;;;;5.50;4.00;;;24.60;19.70;;;;;;5092958;28;20453;-50
2023/05/04 10:24:33;;;;;;;8.10;4.40;;;24.50;18.80;;;;;;5092828;28;20383;-50
2023/05/04 10:27:31;;;;;;;7.07;3.67;;;24.60;20.30;;;;;;5092772;28;20496;-51
2023/05/04 10:30:00;;;;;;;4.47;3.83;;;24.60;19.60;;;;;;5092518;28;20426;-50
2023/05/04 10:32:26;;;;;;;8.83;3.80;;;24.60;19.30;;;;;;5092320;28;20422;-50
2023/05/04 10:35:04;;;;;;;5.77;3.67;;;24.80;19.80;;;;;;5092621;28;20401;-52
2023/05/04 10:37:30;;;;;;;6.53;3.37;;;24.90;18.30;;;;;;5092441;28;20393;-52
2023/05/04 10:39:57;;;;;;;4.40;3.80;;;24.80;18.60;;;;;;5092335;28;20446;-51
2023/05/04 10:42:23;;;;;;;4.20;3.10;;;24.80;18.70;;;;;;5092600;28;20723;-50
2023/05/04 10:44:52;;;;;;;7.33;4.67;;;24.90;18.30;;;;;;5092425;28;20408;-53
2023/05/04 10:47:26;;;;;;;8.13;2.93;;;24.90;19.80;;;;;;5092342;28;20406;-51
2023/05/04 10:50:05;;;;;;;3.87;2.70;;;25.00;17.80;;;;;;5092541;28;20426;-51
2023/05/04 10:52:43;;;;;;;6.03;4.23;;;25.00;18.80;;;;;;5092213;28;20433;-51
2023/05/04 10:55:09;;;;;;;6.53;3.53;;;25.10;18.40;;;;;;5092350;28;20461;-51
2023/05/04 10:58:03;;;;;;;4.13;3.30;;;25.10;18.40;;;;;;5092467;28;20514;-51
2023/05/04 11:00:36;;;;;;;4.67;3.20;;;25.20;17.90;;;;;;5092030;28;20210;-51
2023/05/04 11:03:03;;;;;;;4.30;2.33;;;25.30;18.00;;;;;;5091907;28;20503;-53
2023/05/04 11:05:54;;;;;;;5.97;3.03;;;25.40;18.60;;;;;;5092104;28;20770;-51
2023/05/04 11:08:22;;;;;;;4.23;3.40;;;25.50;17.10;;;;;;5092461;28;20485;-51
2023/05/04 11:11:01;;;;;;;3.80;2.63;;;25.40;16.60;;;;;;5091993;28;20425;-53
2023/05/04 11:13:30;;;;;;;4.73;2.77;;;25.30;15.30;;;;;;5091989;28;20402;-53
2023/05/04 11:15:56;;;;;;;3.50;3.20;;;25.10;15.60;;;;;;5092351;28;20855;-50
2023/05/04 11:18:33;;;;;;;5.10;2.83;;;24.90;16.90;;;;;;5091933;28;20413;-50
2023/05/04 11:21:00;;;;;;;4.33;2.70;;;25.00;17.50;;;;;;5092110;28;20207;-53
2023/05/04 11:23:27;;;;;;;10.67;3.47;;;25.20;18.50;;;;;;5095943;28;20459;-51
2023/05/04 11:25:53;;;;;;;6.47;3.70;;;25.40;17.50;;;;;;5096243;28;20416;-53
2023/05/04 11:28:19;;;;;;;6.60;4.00;;;25.40;17.60;;;;;;5096157;28;20929;-53
2023/05/04 11:30:46;;;;;;;7.40;2.77;;;25.50;18.80;;;;;;5095882;28;20465;-51
2023/05/04 11:33:14;;;;;;;5.33;3.40;;;25.80;19.40;;;;;;5095861;28;20644;-51
2023/05/04 11:35:42;;;;;;;5.70;3.23;;;26.10;19.20;;;;;;5096293;28;20406;-53
2023/05/04 11:38:08;;;;;;;4.90;3.80;;;26.20;17.20;;;;;;5095926;28;20412;-51
2023/05/04 11:40:35;;;;;;;5.23;3.27;;;26.30;16.10;;;;;;5095790;28;20457;-53
2023/05/04 11:43:02;;;;;;;4.47;3.30;;;26.20;16.70;;;;;;5095600;28;20397;-53
2023/05/04 11:45:30;;;;;;;7.43;3.20;;;26.30;18.30;;;;;;5095745;28;20463;-53
2023/05/04 11:47:56;;;;;;;5.03;3.27;;;26.60;18.20;;;;;;5095808;28;20898;-53
2023/05/04 11:50:22;;;;;;;6.00;3.40;;;26.80;17.20;;;;;;5094734;28;20425;-53
2023/05/04 11:52:48;;;;;;;5.47;2.93;;;26.80;17.30;;;;;;5095606;28;20406;-52
2023/05/04 11:55:29;;;;;;;4.50;2.90;;;26.70;16.20;;;;;;5095964;28;20413;-51
2023/05/04 11:58:01;;;;;;;3.33;2.80;;;26.60;16.20;;;;;;5095825;28;20389;-53
2023/05/04 12:00:43;;;;;;;6.23;3.30;;;26.50;16.20;;;;;;5095642;28;20454;-51
2023/05/04 12:03:13;;;;;;;5.50;3.10;;;26.30;15.90;;;;;;5095420;28;20451;-54
2023/05/04 12:05:45;;;;;;;6.30;3.87;;;26.30;17.60;;;;;;5095681;28;20394;-51
2023/05/04 12:08:25;;;;;;;5.63;3.50;;;26.40;17.90;;;;;;5095287;28;20426;-54
2023/05/04 12:11:15;;;;;;;4.93;2.97;;;26.50;15.80;;;;;;5095261;28;20421;-52
2023/05/04 12:13:44;;;;;;;8.50;3.20;;;26.40;15.90;;;;;;5095067;28;20800;-50
2023/05/04 12:16:19;;;;;;;4.53;3.50;;;26.50;18.40;;;;;;5095268;28;20398;-53
2023/05/04 12:18:46;;;;;;;4.67;3.43;;;26.70;17.00;;;;;;5095256;28;20394;-53
2023/05/04 12:21:22;;;;;;;3.63;2.60;;;26.80;16.50;;;;;;5095213;28;20453;-53
2023/05/04 12:23:48;;;;;;;5.80;3.70;;;26.80;16.10;;;;;;5095239;28;20489;-53
2023/05/04 12:26:14;;;;;;;6.33;3.73;;;26.70;15.80;;;;;;5095374;28;20485;-51
2023/05/04 12:28:41;;;;;;;4.80;2.80;;;26.70;17.80;;;;;;5095042;28;20539;-53
2023/05/04 12:31:08;;;;;;;5.30;2.83;;;26.80;17.90;;;;;;5094748;28;20445;-53
2023/05/04 12:33:34;;;;;;;5.20;3.13;;;26.90;18.40;;;;;;5094646;28;20492;-53
2023/05/04 12:36:01;;;;;;;4.30;2.73;;;27.10;17.30;;;;;;5094859;28;20987;-53
2023/05/04 12:38:28;;;;;;;3.90;2.63;;;27.20;15.60;;;;;;5094848;28;20421;-53
2023/05/04 12:40:57;;;;;;;4.43;3.00;;;27.20;15.30;;;;;;5094632;28;20544;-52
2023/05/04 12:43:23;;;;;;;3.60;2.70;;;27.20;17.10;;;;;;5094706;28;20443;-53
2023/05/04 12:45:50;;;;;;;5.53;2.77;;;27.20;16.50;;;;;;5094616;28;20399;-53
2023/05/04 12:48:17;;;;;;;7.00;3.53;;;27.30;17.00;;;;;;5094867;28;20406;-53